createdAt,value
2019-03-12T00:00:19.421Z,1011.06
2019-03-12T00:01:19.453Z,1011.04
2019-03-12T00:02:19.400Z,1011.06
2019-03-12T00:03:19.389Z,1011.10
2019-03-12T00:04:19.378Z,1011.06
2019-03-12T00:05:19.680Z,1011.09
2019-03-12T00:06:19.362Z,1011.08
2019-03-12T00:07:19.383Z,1011.08
2019-03-12T00:08:19.337Z,1011.11
2019-03-12T00:09:19.326Z,1011.13
2019-03-12T00:10:19.318Z,1011.11
2019-03-12T00:11:19.307Z,1011.18
2019-03-12T00:12:19.580Z,1011.14
2019-03-12T00:13:19.335Z,1011.14
2019-03-12T00:14:19.280Z,1011.08
2019-03-12T00:15:19.266Z,1011.15
2019-03-12T00:16:19.256Z,1011.08
2019-03-12T00:17:19.243Z,1011.05
2019-03-12T00:18:19.237Z,1011.06
2019-03-12T00:19:21.506Z,1011.07
2019-03-12T00:20:19.213Z,1011.04
2019-03-12T00:21:19.204Z,1011.01
2019-03-12T00:22:19.193Z,1011.00
2019-03-12T00:23:19.182Z,1011.05
2019-03-12T00:24:19.174Z,1011.00
2019-03-12T00:25:19.301Z,1011.03
2019-03-12T00:26:19.155Z,1010.97
2019-03-12T00:27:19.143Z,1010.98
2019-03-12T00:28:19.134Z,1010.99
2019-03-12T00:29:19.120Z,1010.97
2019-03-12T00:30:19.109Z,1010.96
2019-03-12T00:31:19.227Z,1011.01
2019-03-12T00:32:19.418Z,1011.00
2019-03-12T00:33:19.200Z,1010.96
2019-03-12T00:34:19.910Z,1010.93
2019-03-12T00:35:19.079Z,1010.95
2019-03-12T00:36:19.049Z,1010.94
2019-03-12T00:37:20.005Z,1010.91
2019-03-12T00:44:26.758Z,1011.05
2019-03-12T00:45:05.880Z,1011.08
2019-03-12T00:46:12.514Z,1011.07
2019-03-12T00:47:05.781Z,1011.05
2019-03-12T00:48:05.691Z,1011.06
2019-03-12T01:05:34.850Z,1011.15
2019-03-12T01:06:34.405Z,1011.15
2019-03-12T01:07:36.967Z,1011.17
2019-03-12T01:13:38.193Z,1011.23
2019-03-12T01:14:40.660Z,1011.24
2019-03-12T01:15:44.694Z,1011.20
2019-03-12T01:16:37.806Z,1011.24
2019-03-12T01:24:33.022Z,1011.14
2019-03-12T01:26:08.275Z,1011.15
2019-03-12T01:30:07.179Z,1011.14
2019-03-12T01:31:06.902Z,1011.21
2019-03-12T01:32:13.614Z,1011.09
2019-03-12T01:33:06.795Z,1011.10
2019-03-12T01:39:00.346Z,1011.16
2019-03-12T01:40:00.271Z,1011.12
2019-03-12T01:54:50.696Z,1011.10
2019-03-12T01:55:50.227Z,1011.05
2019-03-12T01:56:50.128Z,1011.06
2019-03-12T01:57:49.988Z,1010.99
2019-03-12T02:16:03.033Z,1011.02
2019-03-12T02:27:18.765Z,1010.97
2019-03-12T02:31:57.661Z,1010.87
2019-03-12T02:33:27.100Z,1010.81
2019-03-12T02:33:55.469Z,1010.81
2019-03-12T02:35:09.991Z,1010.77
2019-03-12T02:43:30.306Z,1010.72
2019-03-12T02:44:30.227Z,1010.64
2019-03-12T02:45:30.202Z,1010.58
2019-03-12T02:46:30.211Z,1010.57
2019-03-12T02:47:30.221Z,1010.58
2019-03-12T02:48:31.376Z,1010.55
2019-03-12T02:57:53.658Z,1010.64
2019-03-12T03:02:35.306Z,1010.65
2019-03-12T03:03:34.614Z,1010.67
2019-03-12T03:04:34.620Z,1010.68
2019-03-12T03:05:34.587Z,1010.73
2019-03-12T03:06:34.572Z,1010.72
2019-03-12T03:07:34.577Z,1010.70
2019-03-12T03:08:34.758Z,1010.68
2019-03-12T03:09:34.944Z,1010.70
2019-03-12T03:10:34.518Z,1010.70
2019-03-12T03:11:34.647Z,1010.71
2019-03-12T03:12:34.498Z,1010.70
2019-03-12T03:13:34.499Z,1010.71
2019-03-12T03:14:34.528Z,1010.72
2019-03-12T03:15:34.475Z,1010.76
2019-03-12T03:16:34.783Z,1010.69
2019-03-12T03:17:34.447Z,1010.68
2019-03-12T03:18:34.442Z,1010.70
2019-03-12T03:19:34.452Z,1010.72
2019-03-12T03:20:34.492Z,1010.68
2019-03-12T03:21:34.408Z,1010.69
2019-03-12T03:22:34.404Z,1010.65
2019-03-12T03:23:34.744Z,1010.67
2019-03-12T03:24:34.381Z,1010.60
2019-03-12T03:25:34.364Z,1010.63
2019-03-12T03:26:34.422Z,1010.64
2019-03-12T03:27:34.350Z,1010.64
2019-03-12T03:28:34.357Z,1010.62
2019-03-12T03:29:34.358Z,1010.63
2019-03-12T03:30:34.700Z,1010.68
2019-03-12T03:31:34.399Z,1010.64
2019-03-12T03:32:34.343Z,1010.64
2019-03-12T03:33:34.317Z,1010.62
2019-03-12T03:34:34.265Z,1010.67
2019-03-12T03:35:34.269Z,1010.65
2019-03-12T03:36:34.269Z,1010.62
2019-03-12T03:37:34.599Z,1010.63
2019-03-12T03:38:34.322Z,1010.66
2019-03-12T03:39:34.221Z,1010.63
2019-03-12T03:40:34.249Z,1010.62
2019-03-12T03:41:35.021Z,1010.62
2019-03-12T03:42:34.210Z,1010.63
2019-03-12T03:43:34.177Z,1010.63
2019-03-12T03:44:34.567Z,1010.57
2019-03-12T03:45:34.172Z,1010.56
2019-03-12T03:46:34.149Z,1010.52
2019-03-12T03:47:34.170Z,1010.52
2019-03-12T03:48:34.804Z,1010.46
2019-03-12T03:49:34.137Z,1010.50
2019-03-12T03:50:34.147Z,1010.42
2019-03-12T03:51:34.792Z,1010.42
2019-03-12T03:52:34.167Z,1010.41
2019-03-12T03:53:34.089Z,1010.36
2019-03-12T03:54:34.082Z,1010.38
2019-03-12T03:55:34.044Z,1010.37
2019-03-12T03:56:34.125Z,1010.34
2019-03-12T03:57:34.029Z,1010.39
2019-03-12T03:58:35.201Z,1010.38
2019-03-12T03:59:34.006Z,1010.40
2019-03-12T04:00:34.018Z,1010.38
2019-03-12T04:01:34.007Z,1010.37
2019-03-12T04:02:34.038Z,1010.34
2019-03-12T04:03:33.974Z,1010.35
2019-03-12T04:04:33.948Z,1010.34
2019-03-12T04:05:34.311Z,1010.34
2019-03-12T04:06:34.520Z,1010.36
2019-03-12T04:07:33.947Z,1010.32
2019-03-12T04:08:34.008Z,1010.36
2019-03-12T04:09:33.923Z,1010.32
2019-03-12T04:10:33.884Z,1010.34
2019-03-12T04:11:33.860Z,1010.32
2019-03-12T04:12:34.228Z,1010.33
2019-03-12T04:13:33.863Z,1010.31
2019-03-12T04:14:34.179Z,1010.29
2019-03-12T04:15:33.850Z,1010.27
2019-03-12T04:16:33.837Z,1010.30
2019-03-12T04:17:33.795Z,1010.32
2019-03-12T04:18:33.810Z,1010.33
2019-03-12T04:19:34.147Z,1010.34
2019-03-12T04:20:33.836Z,1010.36
2019-03-12T04:21:33.780Z,1010.36
2019-03-12T04:22:33.749Z,1010.38
2019-03-12T04:23:33.734Z,1010.33
2019-03-12T04:24:33.747Z,1010.34
2019-03-12T04:25:33.818Z,1010.34
2019-03-12T04:26:34.056Z,1010.33
2019-03-12T04:27:33.738Z,1010.29
2019-03-12T04:28:34.059Z,1010.33
2019-03-12T04:29:33.691Z,1010.32
2019-03-12T04:30:33.702Z,1010.36
2019-03-12T04:31:33.672Z,1010.38
2019-03-12T04:32:34.006Z,1010.40
2019-03-12T04:33:33.977Z,1010.38
2019-03-12T04:34:33.616Z,1010.33
2019-03-12T04:35:33.603Z,1010.31
2019-03-12T04:36:33.639Z,1010.33
2019-03-12T04:37:33.613Z,1010.29
2019-03-12T04:38:33.658Z,1010.28
2019-03-12T04:39:33.625Z,1010.32
2019-03-12T04:40:34.000Z,1010.33
2019-03-12T04:41:33.560Z,1010.30
2019-03-12T04:42:33.562Z,1010.25
2019-03-12T04:43:33.587Z,1010.21
2019-03-12T04:44:33.571Z,1010.19
2019-03-12T04:45:33.615Z,1010.19
2019-03-12T04:46:33.513Z,1010.20
2019-03-12T04:47:33.839Z,1010.19
2019-03-12T04:48:33.489Z,1010.15
2019-03-12T04:49:33.479Z,1010.14
2019-03-12T04:50:33.538Z,1010.09
2019-03-12T04:51:33.491Z,1010.11
2019-03-12T04:52:33.434Z,1010.08
2019-03-12T04:53:33.433Z,1010.08
2019-03-12T04:54:34.045Z,1010.07
2019-03-12T04:55:33.669Z,1010.05
2019-03-12T04:56:33.469Z,1010.05
2019-03-12T04:57:33.413Z,1010.04
2019-03-12T04:58:33.367Z,1010.02
2019-03-12T04:59:33.393Z,1010.00
2019-03-12T05:00:33.599Z,1009.94
2019-03-12T05:01:33.898Z,1009.93
2019-03-12T05:02:34.436Z,1009.96
2019-03-12T05:03:33.371Z,1009.96
2019-03-12T05:04:33.317Z,1009.92
2019-03-12T05:05:33.596Z,1009.97
2019-03-12T05:06:33.473Z,1009.99
2019-03-12T05:07:33.447Z,1010.01
2019-03-12T05:08:34.516Z,1010.01
2019-03-12T05:09:33.496Z,1010.01
2019-03-12T05:10:33.470Z,1010.01
2019-03-12T05:11:33.248Z,1010.06
2019-03-12T05:12:33.224Z,1010.03
2019-03-12T05:13:33.228Z,1010.12
2019-03-12T05:14:33.245Z,1010.13
2019-03-12T05:15:33.524Z,1010.10
2019-03-12T05:16:33.199Z,1010.10
2019-03-12T05:17:33.178Z,1010.10
2019-03-12T05:18:33.168Z,1010.07
2019-03-12T05:19:33.153Z,1009.98
2019-03-12T05:20:33.188Z,1009.96
2019-03-12T05:21:33.133Z,1009.99
2019-03-12T05:22:33.128Z,1009.91
2019-03-12T05:23:33.131Z,1009.89
2019-03-12T05:24:33.196Z,1009.89
2019-03-12T05:25:33.078Z,1009.89
2019-03-12T05:26:33.204Z,1009.86
2019-03-12T05:27:33.085Z,1009.87
2019-03-12T05:28:33.417Z,1009.84
2019-03-12T05:29:33.068Z,1009.85
2019-03-12T05:30:33.037Z,1009.86
2019-03-12T05:31:33.020Z,1009.85
2019-03-12T05:32:33.076Z,1009.83
2019-03-12T05:33:33.803Z,1009.84
2019-03-12T05:34:33.041Z,1009.83
2019-03-12T05:35:33.310Z,1009.84
2019-03-12T05:36:33.064Z,1009.84
2019-03-12T05:37:33.837Z,1009.81
2019-03-12T05:38:33.125Z,1009.79
2019-03-12T05:39:33.120Z,1009.79
2019-03-12T05:40:32.955Z,1009.80
2019-03-12T05:41:32.924Z,1009.74
2019-03-12T05:42:33.423Z,1009.70
2019-03-12T05:43:32.891Z,1009.72
2019-03-12T05:44:33.080Z,1009.67
2019-03-12T05:45:33.300Z,1009.66
2019-03-12T05:46:32.912Z,1009.64
2019-03-12T05:47:32.867Z,1009.63
2019-03-12T05:48:32.851Z,1009.61
2019-03-12T05:49:33.187Z,1009.58
2019-03-12T05:50:33.916Z,1009.53
2019-03-12T05:51:32.831Z,1009.54
2019-03-12T05:52:32.887Z,1009.55
2019-03-12T05:53:33.040Z,1009.47
2019-03-12T05:54:32.808Z,1009.40
2019-03-12T05:55:33.138Z,1009.36
2019-03-12T05:56:32.919Z,1009.33
2019-03-12T05:57:32.744Z,1009.31
2019-03-12T05:58:32.739Z,1009.29
2019-03-12T05:59:32.752Z,1009.26
2019-03-12T06:00:32.732Z,1009.28
2019-03-12T06:01:32.708Z,1009.24
2019-03-12T06:02:33.279Z,1009.23
2019-03-12T06:03:32.676Z,1009.22
2019-03-12T06:04:32.670Z,1009.19
2019-03-12T06:05:35.350Z,1009.25
2019-03-12T06:06:32.653Z,1009.21
2019-03-12T06:07:32.651Z,1009.21
2019-03-12T06:08:32.777Z,1009.19
2019-03-12T06:09:34.155Z,1009.13
2019-03-12T06:10:32.730Z,1009.16
2019-03-12T06:11:32.640Z,1009.15
2019-03-12T06:12:32.595Z,1009.10
2019-03-12T06:13:32.759Z,1009.10
2019-03-12T06:14:32.639Z,1009.08
2019-03-12T06:15:32.612Z,1009.03
2019-03-12T06:16:32.933Z,1009.04
2019-03-12T06:17:58.320Z,1009.06
2019-03-12T06:18:53.543Z,1009.06
2019-03-12T06:19:32.519Z,1009.09
2019-03-12T06:20:32.768Z,1009.07
2019-03-12T06:21:32.522Z,1009.03
2019-03-12T06:22:32.518Z,1009.04
2019-03-12T06:23:32.508Z,1009.09
2019-03-12T06:24:32.465Z,1009.00
2019-03-12T06:25:32.534Z,1008.98
2019-03-12T06:26:32.520Z,1009.02
2019-03-12T06:27:33.045Z,1009.04
2019-03-12T06:28:32.441Z,1008.94
2019-03-12T06:29:32.477Z,1008.95
2019-03-12T06:30:32.393Z,1008.90
2019-03-12T06:31:32.482Z,1008.85
2019-03-12T06:32:32.479Z,1008.90
2019-03-12T06:33:32.429Z,1008.87
2019-03-12T06:34:32.408Z,1008.88
2019-03-12T06:35:32.383Z,1008.85
2019-03-12T06:36:32.343Z,1008.85
2019-03-12T06:37:32.504Z,1008.78
2019-03-12T06:38:32.578Z,1008.74
2019-03-12T06:39:32.333Z,1008.76
2019-03-12T06:40:32.383Z,1008.76
2019-03-12T06:41:33.422Z,1008.81
2019-03-12T06:42:33.108Z,1008.78
2019-03-12T06:43:32.271Z,1008.79
2019-03-12T06:44:32.712Z,1008.76
2019-03-12T06:45:32.273Z,1008.72
2019-03-12T06:46:32.320Z,1008.74
2019-03-12T06:47:32.558Z,1008.69
2019-03-12T06:48:32.226Z,1008.69
2019-03-12T06:49:32.232Z,1008.68
2019-03-12T06:50:32.244Z,1008.67
2019-03-12T06:51:32.248Z,1008.64
2019-03-12T06:52:32.289Z,1008.63
2019-03-12T06:53:32.582Z,1008.58
2019-03-12T06:54:32.587Z,1008.63
2019-03-12T06:55:32.149Z,1008.62
2019-03-12T06:56:32.201Z,1008.60
2019-03-12T06:57:34.814Z,1008.65
2019-03-12T06:58:32.118Z,1008.59
2019-03-12T06:59:32.212Z,1008.58
2019-03-12T07:00:33.950Z,1008.55
2019-03-12T07:01:32.472Z,1008.48
2019-03-12T07:02:40.064Z,1008.46
2019-03-12T07:03:32.071Z,1008.39
2019-03-12T07:04:32.035Z,1008.38
2019-03-12T07:05:32.142Z,1008.40
2019-03-12T07:06:32.314Z,1008.37
2019-03-12T07:07:32.023Z,1008.34
2019-03-12T07:08:33.425Z,1008.31
2019-03-12T07:09:32.059Z,1008.31
2019-03-12T07:10:46.789Z,1008.26
2019-03-12T07:11:31.975Z,1008.30
2019-03-12T07:12:31.985Z,1008.34
2019-03-12T07:13:31.947Z,1008.36
2019-03-12T07:14:32.020Z,1008.36
2019-03-12T07:15:32.880Z,1008.34
2019-03-12T07:16:32.018Z,1008.35
2019-03-12T07:17:31.944Z,1008.29
2019-03-12T07:18:31.910Z,1008.27
2019-03-12T07:19:42.959Z,1008.32
2019-03-12T07:20:32.034Z,1008.27
2019-03-12T07:21:32.567Z,1008.27
2019-03-12T07:22:31.918Z,1008.22
2019-03-12T07:23:31.886Z,1008.17
2019-03-12T07:24:31.863Z,1008.14
2019-03-12T07:25:31.874Z,1008.18
2019-03-12T07:26:31.955Z,1008.08
2019-03-12T07:27:31.878Z,1008.10
2019-03-12T07:28:32.189Z,1008.09
2019-03-12T07:29:31.787Z,1008.03
2019-03-12T07:30:31.793Z,1008.00
2019-03-12T07:31:31.876Z,1008.00
2019-03-12T07:32:33.336Z,1008.04
2019-03-12T07:33:33.009Z,1007.96
2019-03-12T07:34:36.742Z,1007.94
2019-03-12T07:35:33.394Z,1007.98
2019-03-12T07:36:31.837Z,1008.02
2019-03-12T07:37:31.709Z,1008.01
2019-03-12T07:38:31.994Z,1008.00
2019-03-12T07:39:32.240Z,1007.95
2019-03-12T07:40:32.281Z,1008.02
2019-03-12T07:41:32.875Z,1007.96
2019-03-12T07:42:33.339Z,1007.95
2019-03-12T07:43:31.656Z,1007.90
2019-03-12T07:44:31.679Z,1007.82
2019-03-12T07:45:31.642Z,1007.88
2019-03-12T07:46:31.613Z,1007.78
2019-03-12T07:47:36.095Z,1007.84
2019-03-12T07:48:31.597Z,1007.81
2019-03-12T07:49:52.810Z,1007.77
2019-03-12T07:50:31.636Z,1007.73
2019-03-12T07:51:31.851Z,1007.72
2019-03-12T07:52:31.682Z,1007.81
2019-03-12T07:53:31.946Z,1007.70
2019-03-12T07:54:33.174Z,1007.76
2019-03-12T07:55:31.875Z,1007.68
2019-03-12T07:56:31.833Z,1007.71
2019-03-12T07:57:31.522Z,1007.61
2019-03-12T07:58:35.974Z,1007.67
2019-03-12T07:59:31.745Z,1007.64
2019-03-12T08:00:31.531Z,1007.54
2019-03-12T08:01:32.775Z,1007.60
2019-03-12T08:02:31.488Z,1007.56
2019-03-12T08:03:31.421Z,1007.51
2019-03-12T08:04:31.403Z,1007.57
2019-03-12T08:05:32.397Z,1007.52
2019-03-12T08:06:31.656Z,1007.46
2019-03-12T08:07:31.414Z,1007.48
2019-03-12T08:08:31.487Z,1007.37
2019-03-12T08:09:32.165Z,1007.36
2019-03-12T08:10:33.816Z,1007.33
2019-03-12T08:11:31.361Z,1007.37
2019-03-12T08:12:34.212Z,1007.28
2019-03-12T08:13:31.787Z,1007.29
2019-03-12T08:14:31.758Z,1007.24
2019-03-12T08:15:38.827Z,1007.24
2019-03-12T08:16:31.294Z,1007.19
2019-03-12T08:17:31.658Z,1007.19
2019-03-12T08:18:31.384Z,1007.23
2019-03-12T08:19:31.276Z,1007.23
2019-03-12T08:20:31.343Z,1007.21
2019-03-12T08:21:32.284Z,1007.19
2019-03-12T08:22:34.308Z,1007.20
2019-03-12T08:23:31.198Z,1007.11
2019-03-12T08:24:31.708Z,1007.10
2019-03-12T08:25:31.298Z,1007.17
2019-03-12T08:26:31.214Z,1007.11
2019-03-12T08:27:31.198Z,1007.09
2019-03-12T08:28:31.179Z,1007.05
2019-03-12T08:29:31.275Z,1007.05
2019-03-12T08:30:31.147Z,1007.00
2019-03-12T08:31:32.775Z,1006.95
2019-03-12T08:32:31.297Z,1006.93
2019-03-12T08:33:31.090Z,1006.95
2019-03-12T08:34:31.085Z,1006.89
2019-03-12T08:35:31.065Z,1006.86
2019-03-12T08:36:31.099Z,1006.85
2019-03-12T08:37:31.434Z,1006.81
2019-03-12T08:38:31.533Z,1006.76
2019-03-12T08:39:31.082Z,1006.71
2019-03-12T08:40:31.254Z,1006.73
2019-03-12T08:41:32.738Z,1006.74
2019-03-12T08:42:32.034Z,1006.71
2019-03-12T08:43:31.079Z,1006.64
2019-03-12T08:44:31.388Z,1006.64
2019-03-12T08:45:34.466Z,1006.67
2019-03-12T08:46:32.763Z,1006.67
2019-03-12T08:47:32.539Z,1006.59
2019-03-12T08:48:31.011Z,1006.58
2019-03-12T08:49:37.606Z,1006.64
2019-03-12T08:50:31.301Z,1006.58
2019-03-12T08:51:30.937Z,1006.58
2019-03-12T08:52:31.770Z,1006.56
2019-03-12T08:53:32.240Z,1006.48
2019-03-12T08:54:30.912Z,1006.53
2019-03-12T08:55:30.912Z,1006.47
2019-03-12T08:56:32.806Z,1006.45
2019-03-12T08:57:31.556Z,1006.44
2019-03-12T08:58:30.896Z,1006.47
2019-03-12T08:59:30.871Z,1006.43
2019-03-12T09:00:30.834Z,1006.39
2019-03-12T09:01:30.897Z,1006.41
2019-03-12T09:02:32.355Z,1006.43
2019-03-12T09:03:32.784Z,1006.34
2019-03-12T09:04:33.219Z,1006.45
2019-03-12T09:05:31.155Z,1006.33
2019-03-12T09:06:41.491Z,1006.30
2019-03-12T09:07:31.031Z,1006.29
2019-03-12T09:08:30.765Z,1006.28
2019-03-12T09:09:30.743Z,1006.28
2019-03-12T09:10:30.715Z,1006.25
2019-03-12T09:11:31.200Z,1006.27
2019-03-12T09:12:31.840Z,1006.24
2019-03-12T09:13:31.078Z,1006.28
2019-03-12T09:14:30.912Z,1006.33
2019-03-12T09:15:30.709Z,1006.30
2019-03-12T09:16:30.695Z,1006.30
2019-03-12T09:17:32.153Z,1006.24
2019-03-12T09:18:31.279Z,1006.21
2019-03-12T09:19:31.138Z,1006.24
2019-03-12T09:20:30.783Z,1006.20
2019-03-12T09:21:30.568Z,1006.15
2019-03-12T09:22:30.560Z,1006.13
2019-03-12T09:23:30.547Z,1006.22
2019-03-12T09:24:30.652Z,1006.10
2019-03-12T09:25:30.588Z,1006.05
2019-03-12T09:26:30.522Z,1005.98
2019-03-12T09:27:30.589Z,1006.09
2019-03-12T09:28:30.642Z,1006.04
2019-03-12T09:29:30.553Z,1006.10
2019-03-12T09:30:30.636Z,1006.06
2019-03-12T09:31:32.711Z,1006.04
2019-03-12T09:32:30.738Z,1005.98
2019-03-12T09:33:30.638Z,1005.98
2019-03-12T09:34:30.433Z,1005.94
2019-03-12T09:35:30.416Z,1005.92
2019-03-12T09:36:30.632Z,1005.97
2019-03-12T09:37:30.920Z,1005.83
2019-03-12T09:38:30.945Z,1005.91
2019-03-12T09:39:30.437Z,1005.81
2019-03-12T09:40:30.875Z,1005.84
2019-03-12T09:41:30.653Z,1005.90
2019-03-12T09:42:30.354Z,1005.86
2019-03-12T09:43:30.371Z,1005.94
2019-03-12T09:44:30.327Z,1005.75
2019-03-12T09:45:30.310Z,1005.69
2019-03-12T09:46:30.310Z,1005.66
2019-03-12T09:47:30.287Z,1005.69
2019-03-12T09:48:30.346Z,1005.62
2019-03-12T09:49:30.715Z,1005.60
2019-03-12T09:50:30.518Z,1005.52
2019-03-12T09:51:30.401Z,1005.60
2019-03-12T09:52:30.236Z,1005.59
2019-03-12T09:53:30.225Z,1005.53
2019-03-12T09:54:30.211Z,1005.57
2019-03-12T09:55:30.229Z,1005.53
2019-03-12T09:56:30.192Z,1005.52
2019-03-12T09:57:30.182Z,1005.47
2019-03-12T09:58:30.171Z,1005.44
2019-03-12T09:59:30.157Z,1005.42
2019-03-12T10:00:30.146Z,1005.38
2019-03-12T10:01:30.382Z,1005.42
2019-03-12T10:02:30.595Z,1005.38
2019-03-12T10:03:30.137Z,1005.32
2019-03-12T10:04:30.310Z,1005.35
2019-03-12T10:05:30.095Z,1005.28
2019-03-12T10:06:30.097Z,1005.27
2019-03-12T10:07:30.110Z,1005.19
2019-03-12T10:08:30.198Z,1005.16
2019-03-12T10:09:30.519Z,1005.28
2019-03-12T10:10:30.044Z,1005.09
2019-03-12T10:11:30.030Z,1005.11
2019-03-12T10:12:30.026Z,1005.11
2019-03-12T10:13:30.045Z,1005.07
2019-03-12T10:14:30.014Z,1004.95
2019-03-12T10:15:30.244Z,1005.02
2019-03-12T10:16:30.350Z,1005.04
2019-03-12T10:17:30.088Z,1004.92
2019-03-12T10:18:29.965Z,1004.88
2019-03-12T10:19:30.082Z,1004.91
2019-03-12T10:20:29.968Z,1004.90
2019-03-12T10:21:30.374Z,1004.87
2019-03-12T10:22:29.953Z,1004.90
2019-03-12T10:23:29.915Z,1004.82
2019-03-12T10:24:29.888Z,1004.81
2019-03-12T10:25:30.024Z,1004.85
2019-03-12T10:26:30.742Z,1004.77
2019-03-12T10:27:29.972Z,1004.74
2019-03-12T10:28:29.906Z,1004.69
2019-03-12T10:29:30.253Z,1004.75
2019-03-12T10:30:29.918Z,1004.65
2019-03-12T10:31:30.114Z,1004.63
2019-03-12T10:32:29.941Z,1004.63
2019-03-12T10:33:30.085Z,1004.58
2019-03-12T10:34:30.249Z,1004.55
2019-03-12T10:35:29.779Z,1004.54
2019-03-12T10:36:31.045Z,1004.45
2019-03-12T10:37:30.014Z,1004.46
2019-03-12T10:38:29.741Z,1004.48
2019-03-12T10:39:29.747Z,1004.41
2019-03-12T10:40:29.725Z,1004.42
2019-03-12T10:41:30.179Z,1004.27
2019-03-12T10:42:29.962Z,1004.30
2019-03-12T10:43:29.846Z,1004.25
2019-03-12T10:44:29.674Z,1004.15
2019-03-12T10:45:29.800Z,1004.16
2019-03-12T10:46:30.914Z,1004.09
2019-03-12T10:47:29.745Z,1004.04
2019-03-12T10:48:29.635Z,1003.99
2019-03-12T10:49:37.562Z,1003.91
2019-03-12T10:50:30.753Z,1003.85
2019-03-12T10:51:29.600Z,1003.90
2019-03-12T10:52:29.793Z,1003.96
2019-03-12T10:53:29.690Z,1003.82
2019-03-12T10:54:29.719Z,1003.89
2019-03-12T10:55:29.730Z,1003.79
2019-03-12T10:56:29.691Z,1003.78
2019-03-12T10:57:29.532Z,1003.74
2019-03-12T10:58:29.666Z,1003.68
2019-03-12T10:59:29.796Z,1003.59
2019-03-12T11:00:29.589Z,1003.47
2019-03-12T11:01:30.278Z,1003.36
2019-03-12T11:02:29.557Z,1003.44
2019-03-12T11:03:29.546Z,1003.31
2019-03-12T11:04:29.567Z,1003.26
2019-03-12T11:05:29.489Z,1003.28
2019-03-12T11:06:29.449Z,1003.29
2019-03-12T11:07:29.486Z,1003.31
2019-03-12T11:08:29.540Z,1003.29
2019-03-12T11:09:29.482Z,1003.41
2019-03-12T11:10:29.413Z,1003.35
2019-03-12T11:11:29.839Z,1003.35
2019-03-12T11:12:29.381Z,1003.30
2019-03-12T11:13:29.413Z,1003.19
2019-03-12T11:14:29.353Z,1003.23
2019-03-12T11:15:29.345Z,1003.23
2019-03-12T11:16:29.340Z,1003.22
2019-03-12T11:17:29.388Z,1003.18
2019-03-12T11:18:29.735Z,1003.13
2019-03-12T11:19:29.531Z,1003.16
2019-03-12T11:20:29.293Z,1003.15
2019-03-12T11:21:29.296Z,1003.14
2019-03-12T11:22:29.433Z,1003.08
2019-03-12T11:23:29.605Z,1003.03
2019-03-12T11:24:29.251Z,1002.98
2019-03-12T11:25:29.663Z,1002.93
2019-03-12T11:26:29.251Z,1002.94
2019-03-12T11:27:29.213Z,1002.91
2019-03-12T11:28:29.221Z,1002.92
2019-03-12T11:29:29.203Z,1003.03
2019-03-12T11:30:29.182Z,1002.96
2019-03-12T11:31:29.331Z,1002.99
2019-03-12T11:32:29.162Z,1002.88
2019-03-12T11:33:29.301Z,1002.85
2019-03-12T11:34:29.263Z,1002.90
2019-03-12T11:35:38.736Z,1002.88
2019-03-12T11:36:31.663Z,1002.87
2019-03-12T11:37:29.738Z,1002.91
2019-03-12T11:38:29.575Z,1002.81
2019-03-12T11:39:29.160Z,1002.75
2019-03-12T11:40:32.533Z,1002.70
2019-03-12T11:41:29.857Z,1002.75
2019-03-12T11:42:29.529Z,1002.74
2019-03-12T11:43:29.142Z,1002.75
2019-03-12T11:44:29.097Z,1002.79
2019-03-12T11:45:36.333Z,1002.66
2019-03-12T11:46:40.695Z,1002.57
2019-03-12T11:47:30.035Z,1002.54
2019-03-12T11:48:29.291Z,1002.51
2019-03-12T11:49:29.236Z,1002.43
2019-03-12T11:50:29.477Z,1002.45
2019-03-12T11:51:29.035Z,1002.54
2019-03-12T11:52:28.947Z,1002.53
2019-03-12T11:53:29.027Z,1002.46
2019-03-12T11:54:29.026Z,1002.41
2019-03-12T11:55:28.947Z,1002.45
2019-03-12T11:56:28.928Z,1002.49
2019-03-12T11:57:28.982Z,1002.42
2019-03-12T11:58:28.951Z,1002.32
2019-03-12T11:59:29.024Z,1002.31
2019-03-12T12:00:29.147Z,1002.28
2019-03-12T12:01:28.985Z,1002.27
2019-03-12T12:02:29.706Z,1002.36
2019-03-12T12:03:29.699Z,1002.27
2019-03-12T12:04:29.237Z,1002.31
2019-03-12T12:05:28.933Z,1002.24
2019-03-12T12:06:30.165Z,1002.21
2019-03-12T12:07:28.984Z,1002.18
2019-03-12T12:08:28.790Z,1002.13
2019-03-12T12:09:28.877Z,1002.11
2019-03-12T12:10:28.762Z,1002.03
2019-03-12T12:11:28.766Z,1002.08
2019-03-12T12:12:29.856Z,1002.08
2019-03-12T12:13:28.722Z,1002.01
2019-03-12T12:14:28.881Z,1002.05
2019-03-12T12:15:29.290Z,1002.02
2019-03-12T12:16:29.161Z,1001.97
2019-03-12T12:17:29.429Z,1001.91
2019-03-12T12:18:28.716Z,1001.93
2019-03-12T12:19:28.809Z,1001.86
2019-03-12T12:20:30.353Z,1001.78
2019-03-12T12:21:28.847Z,1001.78
2019-03-12T12:22:29.709Z,1001.69
2019-03-12T12:23:28.896Z,1001.74
2019-03-12T12:24:28.748Z,1001.69
2019-03-12T12:25:28.598Z,1001.60
2019-03-12T12:26:28.718Z,1001.60
2019-03-12T12:27:28.577Z,1001.55
2019-03-12T12:28:28.573Z,1001.47
2019-03-12T12:29:28.564Z,1001.46
2019-03-12T12:30:28.581Z,1001.45
2019-03-12T12:31:28.573Z,1001.42
2019-03-12T12:32:28.524Z,1001.42
2019-03-12T12:33:28.601Z,1001.24
2019-03-12T12:34:28.512Z,1001.34
2019-03-12T12:35:29.097Z,1001.29
2019-03-12T12:36:28.628Z,1001.26
2019-03-12T12:37:28.470Z,1001.26
2019-03-12T12:38:28.464Z,1001.14
2019-03-12T12:39:28.446Z,1001.16
2019-03-12T12:40:28.435Z,1001.09
2019-03-12T12:41:28.496Z,1001.05
2019-03-12T12:42:28.496Z,1001.04
2019-03-12T12:43:28.412Z,1000.98
2019-03-12T12:44:28.533Z,1000.94
2019-03-12T12:45:28.400Z,1000.89
2019-03-12T12:46:28.814Z,1000.84
2019-03-12T12:47:28.375Z,1000.87
2019-03-12T12:48:28.726Z,1000.78
2019-03-12T12:49:28.364Z,1000.64
2019-03-12T12:50:28.370Z,1000.69
2019-03-12T12:51:28.332Z,1000.66
2019-03-12T12:52:28.318Z,1000.63
2019-03-12T12:53:28.645Z,1000.65
2019-03-12T12:54:28.432Z,1000.56
2019-03-12T12:55:28.280Z,1000.48
2019-03-12T12:56:28.265Z,1000.51
2019-03-12T12:57:28.269Z,1000.52
2019-03-12T12:58:28.250Z,1000.62
2019-03-12T12:59:28.243Z,1000.42
2019-03-12T13:00:28.796Z,1000.43
2019-03-12T13:01:28.739Z,1000.50
2019-03-12T13:02:28.212Z,1000.36
2019-03-12T13:03:28.209Z,1000.48
2019-03-12T13:04:28.190Z,1000.36
2019-03-12T13:05:28.191Z,1000.33
2019-03-12T13:06:28.520Z,1000.30
2019-03-12T13:07:28.149Z,1000.29
2019-03-12T13:08:28.143Z,1000.31
2019-03-12T13:09:28.149Z,1000.25
2019-03-12T13:10:28.234Z,1000.23
2019-03-12T13:11:28.118Z,1000.25
2019-03-12T13:12:28.179Z,1000.25
2019-03-12T13:13:28.085Z,1000.12
2019-03-12T13:14:40.776Z,1000.22
2019-03-12T13:15:29.077Z,1000.11
2019-03-12T13:16:28.093Z,1000.08
2019-03-12T13:17:28.066Z,1000.06
2019-03-12T13:18:28.105Z,1000.06
2019-03-12T13:19:28.421Z,1000.05
2019-03-12T13:20:28.062Z,1000.03
2019-03-12T13:21:28.758Z,1000.01
2019-03-12T13:22:28.100Z,1000.06
2019-03-12T13:23:28.309Z,999.94
2019-03-12T13:24:28.129Z,999.94
2019-03-12T13:25:27.968Z,999.84
2019-03-12T13:26:28.021Z,999.90
2019-03-12T13:27:27.986Z,999.92
2019-03-12T13:28:29.689Z,999.89
2019-03-12T13:29:27.927Z,999.95
2019-03-12T13:30:27.951Z,999.92
2019-03-12T13:31:27.918Z,999.87
2019-03-12T13:32:28.176Z,999.80
2019-03-12T13:33:27.979Z,999.79
2019-03-12T13:34:28.122Z,999.78
2019-03-12T13:35:27.937Z,999.73
2019-03-12T13:36:28.687Z,999.71
2019-03-12T13:37:27.852Z,999.64
2019-03-12T13:38:28.401Z,999.61
2019-03-12T13:39:27.863Z,999.60
2019-03-12T13:40:27.821Z,999.56
2019-03-12T13:41:28.153Z,999.59
2019-03-12T13:42:27.878Z,999.55
2019-03-12T13:43:28.047Z,999.39
2019-03-12T13:44:28.815Z,999.40
2019-03-12T13:45:28.687Z,999.44
2019-03-12T13:46:27.729Z,999.38
2019-03-12T13:47:29.663Z,999.43
2019-03-12T13:48:27.825Z,999.44
2019-03-12T13:49:28.246Z,999.35
2019-03-12T13:50:27.743Z,999.34
2019-03-12T13:51:27.685Z,999.27
2019-03-12T13:52:28.461Z,999.22
2019-03-12T13:53:27.662Z,999.22